createdAt,value
2023-01-11T00:02:36.185Z,-24.4
2023-01-11T00:07:55.463Z,-24.7
2023-01-11T00:13:15.003Z,-25
2023-01-11T00:18:34.086Z,-24.7
2023-01-11T00:23:53.514Z,-24.5
2023-01-11T00:29:12.629Z,-24.8
2023-01-11T00:34:31.566Z,-24.9
2023-01-11T00:39:50.588Z,-24
2023-01-11T00:45:09.988Z,-24
2023-01-11T00:50:29.076Z,-24.3
2023-01-11T00:55:47.942Z,-24
2023-01-11T01:01:07.102Z,-24.3
2023-01-11T01:06:26.821Z,-26.1
2023-01-11T01:11:46.188Z,-24.2
2023-01-11T01:22:24.805Z,-24.1
2023-01-11T01:27:43.858Z,-24.4
2023-01-11T01:33:02.630Z,-24.8
2023-01-11T01:38:22.017Z,-24.2
2023-01-11T01:43:40.776Z,-24.1
2023-01-11T01:49:00.278Z,-24.1
2023-01-11T01:54:20.020Z,-24.6
2023-01-11T02:04:58.376Z,-24.5
2023-01-11T02:10:18.154Z,-24.3
2023-01-11T02:20:57.596Z,-24.4
2023-01-11T02:26:17.359Z,-24.8
2023-01-11T02:31:36.460Z,-26.5
2023-01-11T02:36:55.667Z,-24.8
2023-01-11T02:42:14.858Z,-24.4
2023-01-11T02:47:33.877Z,-24.6
2023-01-11T02:52:52.666Z,-24.4
2023-01-11T03:03:31.027Z,-25
2023-01-11T03:08:50.363Z,-23.9
2023-01-11T03:19:28.880Z,-24.7
2023-01-11T03:30:06.544Z,-24
2023-01-11T03:35:25.895Z,-23.7
2023-01-11T03:46:04.432Z,-24.1
2023-01-11T03:51:23.279Z,-24.6
2023-01-11T04:02:02.237Z,-24.7
2023-01-11T04:12:41.169Z,-24.2
2023-01-11T04:18:00.265Z,-24.8
2023-01-11T04:28:38.495Z,-25.1
2023-01-11T04:33:57.359Z,-25.1
2023-01-11T04:44:35.467Z,-24.3
2023-01-11T04:49:54.916Z,-24.7
2023-01-11T04:55:14.391Z,-24.8
2023-01-11T05:00:33.792Z,-24.5
2023-01-11T05:05:52.529Z,-24.7
2023-01-11T05:11:12.081Z,-24.7
2023-01-11T05:21:50.440Z,-27.2
2023-01-11T05:27:09.464Z,-24.3
2023-01-11T05:32:28.826Z,-24.5
2023-01-11T05:37:48.574Z,-24.6
2023-01-11T05:48:27.227Z,-24.5
2023-01-11T05:53:46.900Z,-24.9
2023-01-11T06:04:26.269Z,-24.5
2023-01-11T06:09:45.183Z,-24.9
2023-01-11T06:15:03.763Z,-24.2
2023-01-11T06:20:22.672Z,-24
2023-01-11T06:25:43.102Z,-24.7
2023-01-11T06:31:01.607Z,-25
2023-01-11T06:36:20.747Z,-24.2
2023-01-11T06:46:59.197Z,-24.4
2023-01-11T06:52:18.316Z,-25.9
2023-01-11T07:02:57.275Z,-24.2
2023-01-11T07:08:16.053Z,-24.8
2023-01-11T07:13:35.448Z,-24.6
2023-01-11T07:18:55.093Z,-25.4
2023-01-11T07:29:34.898Z,-25
2023-01-11T07:34:54.584Z,-25.7
2023-01-11T07:45:44.449Z,-26.6
2023-01-11T07:50:52.273Z,-21.1
2023-01-11T07:56:12.016Z,-19.1
2023-01-11T08:01:30.787Z,-17.2
2023-01-11T08:06:50.054Z,-11.2
2023-01-11T08:12:08.908Z,-6.5
2023-01-11T08:17:28.651Z,-7.3
2023-01-11T08:28:07.669Z,9
2023-01-11T08:33:27.200Z,20.2
2023-01-11T08:38:46.000Z,15
2023-01-11T08:44:05.527Z,4.1
2023-01-11T08:49:24.342Z,0.7
2023-01-11T08:54:43.400Z,-4.3
2023-01-11T09:00:02.611Z,-1.5
2023-01-11T09:10:41.907Z,12
2023-01-11T09:16:01.046Z,19.6
2023-01-11T09:21:20.308Z,21.2
2023-01-11T09:26:39.182Z,12.9
2023-01-11T09:31:58.126Z,7.4
2023-01-11T09:37:16.995Z,-2.8
2023-01-11T09:42:37.057Z,-3.1
2023-01-11T09:53:15.746Z,3.3
2023-01-11T09:58:35.484Z,14
2023-01-11T10:19:52.949Z,17.6
2023-01-11T10:25:12.207Z,13.7
2023-01-11T10:30:31.140Z,4.1
2023-01-11T10:35:49.933Z,1.7
2023-01-11T10:41:09.340Z,4.3
2023-01-11T10:51:47.728Z,5.4
2023-01-11T10:57:08.122Z,6.1
2023-01-11T11:02:26.579Z,19.4
2023-01-11T11:07:45.732Z,15.9
2023-01-11T11:13:04.816Z,8.2
2023-01-11T11:18:24.063Z,10
2023-01-11T11:23:43.259Z,11.7
2023-01-11T11:34:22.165Z,2.09
2023-01-11T11:39:41.546Z,5.1
2023-01-11T11:45:00.918Z,-3.7
2023-01-11T11:50:36.968Z,9
2023-01-11T11:55:39.587Z,7.8
2023-01-11T12:00:58.569Z,7.3
2023-01-11T12:11:35.675Z,15.8
2023-01-11T12:16:54.737Z,37.5
2023-01-11T12:27:32.703Z,16.9
2023-01-11T12:38:19.211Z,0.2
2023-01-11T12:43:30.069Z,-7.8
2023-01-11T12:54:08.046Z,8.5
2023-01-11T12:59:27.577Z,9.6
2023-01-11T13:04:46.844Z,6.2
2023-01-11T13:10:06.140Z,21
2023-01-11T13:15:25.518Z,27.9
2023-01-11T13:20:59.784Z,13.4
2023-01-11T13:26:04.622Z,59.2
2023-01-11T13:36:43.803Z,21.3
2023-01-11T13:42:02.775Z,3.5
2023-01-11T13:52:41.743Z,9
2023-01-11T13:58:01.281Z,11.7
2023-01-11T14:03:21.548Z,8.8
2023-01-11T14:08:40.986Z,7.6
2023-01-11T14:19:18.314Z,-6.4
2023-01-11T14:24:37.141Z,-6.5
2023-01-11T14:35:15.637Z,-4
2023-01-11T14:40:34.729Z,-13
2023-01-11T14:45:53.783Z,-23.2
2023-01-11T14:51:12.510Z,-21.8
2023-01-11T15:01:51.048Z,-18.2
2023-01-11T15:07:10.729Z,-19.29
2023-01-11T15:17:49.003Z,-25.8
2023-01-11T15:23:08.671Z,-25.9
2023-01-11T15:28:27.412Z,-25.5
2023-01-11T15:33:47.219Z,-25.1
2023-01-11T15:39:06.096Z,-25.5
2023-01-11T15:39:31.156Z,-25.4
2023-01-11T15:44:50.701Z,-25.3
2023-01-11T15:50:09.203Z,-24.7
2023-01-11T15:55:28.104Z,-25
2023-01-11T16:00:47.862Z,-24.5
2023-01-11T16:06:07.653Z,-25
2023-01-11T16:16:45.645Z,-24.8
2023-01-11T16:22:04.713Z,-24.5
2023-01-11T16:32:43.682Z,-24.7
2023-01-11T16:38:02.518Z,-25
2023-01-11T16:43:21.864Z,-24.3
2023-01-11T16:48:41.091Z,-24.3
2023-01-11T16:59:20.377Z,-24.6
2023-01-11T17:04:39.349Z,-25.3
2023-01-11T17:15:17.632Z,-24.3
2023-01-11T17:20:36.952Z,-27.4
2023-01-11T17:31:16.155Z,-24.6
2023-01-11T17:36:34.734Z,-25.1
2023-01-11T17:41:53.509Z,-24.7
2023-01-11T17:47:13.275Z,-24.4
2023-01-11T17:57:51.614Z,-24.7
2023-01-11T18:03:10.816Z,-24.7
2023-01-11T18:13:49.386Z,-24.4
2023-01-11T18:24:27.807Z,-24.3
2023-01-11T18:35:06.338Z,-24.7
2023-01-11T18:40:26.207Z,-24.8
2023-01-11T18:51:04.904Z,-24.6
2023-01-11T18:56:23.772Z,-24.7
2023-01-11T19:01:54.272Z,-24.8
2023-01-11T19:07:01.644Z,-24.4
2023-01-11T19:12:21.324Z,-24.7
2023-01-11T19:17:40.376Z,-24.9
2023-01-11T19:22:59.417Z,-24.3
2023-01-11T19:33:37.741Z,-24.2
2023-01-11T19:38:57.560Z,-23.8
2023-01-11T19:44:16.724Z,-24
2023-01-11T19:49:35.701Z,-24.6
2023-01-11T19:54:55.357Z,-24.6
2023-01-11T20:00:14.919Z,-24.4
2023-01-11T20:05:33.684Z,-24.9
2023-01-11T20:16:12.018Z,-24.2
2023-01-11T20:21:31.538Z,-24.7
2023-01-11T20:32:31.424Z,-24.4
2023-01-11T20:37:29.987Z,-25
2023-01-11T20:42:48.914Z,-25
2023-01-11T20:48:07.805Z,-24.8
2023-01-11T20:58:45.654Z,-24.7
2023-01-11T21:04:04.753Z,-24.3
2023-01-11T21:14:42.558Z,-24.4
2023-01-11T21:20:02.203Z,-24.1
2023-01-11T21:25:21.598Z,-24.6
2023-01-11T21:30:40.735Z,-24.2
2023-01-11T21:41:19.740Z,-23.9
2023-01-11T21:46:39.489Z,-24.4
2023-01-11T21:57:18.483Z,-24.4
2023-01-11T22:02:37.475Z,-24.3
2023-01-11T22:07:56.716Z,-24.8
2023-01-11T22:13:15.937Z,-24.7
2023-01-11T22:18:35.208Z,-23.9
2023-01-11T22:23:54.632Z,-24.6
2023-01-11T22:29:14.206Z,-24.4
2023-01-11T22:39:52.292Z,-25
2023-01-11T22:45:11.771Z,-24.8
2023-01-11T22:50:31.009Z,-24.2
2023-01-11T22:55:50.045Z,-24.2
2023-01-11T23:06:28.894Z,-24.1
2023-01-11T23:11:48.467Z,-24
2023-01-11T23:17:07.938Z,-24.3
2023-01-11T23:22:26.998Z,-24.1
2023-01-11T23:27:45.381Z,-24.9
2023-01-11T23:38:23.730Z,-24.3
2023-01-11T23:43:42.634Z,-24.1
2023-01-11T23:49:01.572Z,-25.1
2023-01-11T23:54:21.518Z,-25.2
2023-01-11T23:59:41.242Z,-25.9
